sensor_id;sensor_type;location;lat;lon;timestamp;pressure;altitude;pressure_sealevel;temperature;humidity
79686;BME280;69153;47.918;11.428;2023-09-18T00:00:50;94819.84;;;19.13;57.48
79686;BME280;69153;47.918;11.428;2023-09-18T00:03:20;94816.66;;;19.09;57.70
79686;BME280;69153;47.918;11.428;2023-09-18T00:05:47;94818.84;;;19.05;57.86
79686;BME280;69153;47.918;11.428;2023-09-18T00:08:14;94814.44;;;19.02;57.97
79686;BME280;69153;47.918;11.428;2023-09-18T00:10:40;94811.22;;;18.98;57.89
79686;BME280;69153;47.918;11.428;2023-09-18T00:13:06;94816.09;;;18.94;58.13
79686;BME280;69153;47.918;11.428;2023-09-18T00:15:33;94815.56;;;18.90;58.11
79686;BME280;69153;47.918;11.428;2023-09-18T00:17:58;94816.31;;;18.90;58.10
79686;BME280;69153;47.918;11.428;2023-09-18T00:20:23;94809.72;;;18.91;57.90
79686;BME280;69153;47.918;11.428;2023-09-18T00:22:54;94806.78;;;18.89;58.16
79686;BME280;69153;47.918;11.428;2023-09-18T00:25:22;94796.06;;;18.89;58.44
79686;BME280;69153;47.918;11.428;2023-09-18T00:27:48;94799.25;;;18.94;58.11
79686;BME280;69153;47.918;11.428;2023-09-18T00:30:14;94792.59;;;18.83;58.26
79686;BME280;69153;47.918;11.428;2023-09-18T00:32:40;94783.31;;;18.84;57.80
79686;BME280;69153;47.918;11.428;2023-09-18T00:35:06;94781.38;;;18.85;57.64
79686;BME280;69153;47.918;11.428;2023-09-18T00:37:31;94777.47;;;18.80;57.85
79686;BME280;69153;47.918;11.428;2023-09-18T00:39:57;94784.31;;;18.81;58.33
79686;BME280;69153;47.918;11.428;2023-09-18T00:42:23;94777.69;;;18.77;58.20
79686;BME280;69153;47.918;11.428;2023-09-18T00:44:49;94779.63;;;18.76;59.03
79686;BME280;69153;47.918;11.428;2023-09-18T00:47:16;94782.53;;;18.73;58.49
79686;BME280;69153;47.918;11.428;2023-09-18T00:49:47;94781.25;;;18.63;58.68
79686;BME280;69153;47.918;11.428;2023-09-18T00:52:15;94778.59;;;18.68;58.52
79686;BME280;69153;47.918;11.428;2023-09-18T00:54:42;94774.94;;;18.71;58.37
79686;BME280;69153;47.918;11.428;2023-09-18T00:57:09;94775.41;;;18.64;58.88
79686;BME280;69153;47.918;11.428;2023-09-18T00:59:36;94764.47;;;18.68;58.60
79686;BME280;69153;47.918;11.428;2023-09-18T01:02:02;94760.56;;;18.69;58.11
79686;BME280;69153;47.918;11.428;2023-09-18T01:04:29;94770.25;;;18.61;58.34
79686;BME280;69153;47.918;11.428;2023-09-18T01:06:55;94768.31;;;18.61;57.98
79686;BME280;69153;47.918;11.428;2023-09-18T01:09:23;94772.69;;;18.59;58.00
79686;BME280;69153;47.918;11.428;2023-09-18T01:14:40;94765.53;;;18.50;57.69
79686;BME280;69153;47.918;11.428;2023-09-18T01:17:10;94760.13;;;18.44;57.64
79686;BME280;69153;47.918;11.428;2023-09-18T01:22:09;94761.03;;;18.36;57.96
79686;BME280;69153;47.918;11.428;2023-09-18T01:24:35;94759.78;;;18.31;57.70
79686;BME280;69153;47.918;11.428;2023-09-18T01:27:03;94758.53;;;18.27;58.16
79686;BME280;69153;47.918;11.428;2023-09-18T01:29:30;94755.59;;;18.25;58.10
79686;BME280;69153;47.918;11.428;2023-09-18T01:31:56;94760.22;;;18.24;58.12
79686;BME280;69153;47.918;11.428;2023-09-18T01:34:27;94756.53;;;18.21;58.09
79686;BME280;69153;47.918;11.428;2023-09-18T01:36:57;94752.84;;;18.19;58.38
79686;BME280;69153;47.918;11.428;2023-09-18T01:39:25;94750.44;;;18.21;58.17
79686;BME280;69153;47.918;11.428;2023-09-18T01:41:56;94746.28;;;18.20;58.34
79686;BME280;69153;47.918;11.428;2023-09-18T01:44:25;94735.81;;;18.22;58.21
79686;BME280;69153;47.918;11.428;2023-09-18T01:46:52;94729.19;;;18.12;58.63
79686;BME280;69153;47.918;11.428;2023-09-18T01:49:32;94726.75;;;18.14;58.51
79686;BME280;69153;47.918;11.428;2023-09-18T01:51:57;94719.94;;;18.18;58.90
79686;BME280;69153;47.918;11.428;2023-09-18T01:54:24;94719.72;;;18.22;58.53
79686;BME280;69153;47.918;11.428;2023-09-18T01:56:50;94720.22;;;18.20;58.31
79686;BME280;69153;47.918;11.428;2023-09-18T01:59:15;94713.84;;;18.18;58.82
79686;BME280;69153;47.918;11.428;2023-09-18T02:01:41;94718.97;;;18.16;58.68
79686;BME280;69153;47.918;11.428;2023-09-18T02:04:06;94723.38;;;18.19;58.87
79686;BME280;69153;47.918;11.428;2023-09-18T02:06:32;94718.19;;;18.10;58.97
79686;BME280;69153;47.918;11.428;2023-09-18T02:08:57;94727.97;;;18.13;58.53
79686;BME280;69153;47.918;11.428;2023-09-18T02:11:24;94716.03;;;18.14;58.65
79686;BME280;69153;47.918;11.428;2023-09-18T02:13:49;94711.34;;;18.09;57.80
79686;BME280;69153;47.918;11.428;2023-09-18T02:16:15;94717.16;;;18.02;57.94
79686;BME280;69153;47.918;11.428;2023-09-18T02:18:40;94720.31;;;18.00;58.16
79686;BME280;69153;47.918;11.428;2023-09-18T02:21:06;94721.72;;;17.96;58.40
79686;BME280;69153;47.918;11.428;2023-09-18T02:23:34;94720.50;;;17.91;58.36
79686;BME280;69153;47.918;11.428;2023-09-18T02:25:59;94705.63;;;17.90;58.19
79686;BME280;69153;47.918;11.428;2023-09-18T02:28:25;94696.84;;;17.90;58.54
79686;BME280;69153;47.918;11.428;2023-09-18T02:30:51;94704.16;;;17.89;58.61
79686;BME280;69153;47.918;11.428;2023-09-18T02:33:16;94699.06;;;17.91;58.36
79686;BME280;69153;47.918;11.428;2023-09-18T02:35:42;94680.75;;;17.90;58.91
79686;BME280;69153;47.918;11.428;2023-09-18T02:38:10;94684.13;;;17.84;59.00
79686;BME280;69153;47.918;11.428;2023-09-18T02:40:35;94691.44;;;17.84;58.85
79686;BME280;69153;47.918;11.428;2023-09-18T02:43:01;94689.47;;;17.84;58.83
79686;BME280;69153;47.918;11.428;2023-09-18T02:45:27;94691.91;;;17.82;58.87
79686;BME280;69153;47.918;11.428;2023-09-18T02:47:53;94679.72;;;17.81;58.71
79686;BME280;69153;47.918;11.428;2023-09-18T02:50:18;94669.69;;;17.76;58.76
79686;BME280;69153;47.918;11.428;2023-09-18T02:52:43;94673.13;;;17.82;58.75
79686;BME280;69153;47.918;11.428;2023-09-18T02:55:09;94669.69;;;17.76;58.42
79686;BME280;69153;47.918;11.428;2023-09-18T02:57:35;94661.91;;;17.78;58.47
79686;BME280;69153;47.918;11.428;2023-09-18T03:00:01;94659.44;;;17.75;58.73
79686;BME280;69153;47.918;11.428;2023-09-18T03:02:26;94651.41;;;17.75;58.71
79686;BME280;69153;47.918;11.428;2023-09-18T03:04:52;94653.09;;;17.72;58.45
79686;BME280;69153;47.918;11.428;2023-09-18T03:07:17;94649.00;;;17.77;58.21
79686;BME280;69153;47.918;11.428;2023-09-18T03:09:42;94637.69;;;17.67;58.15
79686;BME280;69153;47.918;11.428;2023-09-18T03:12:08;94640.72;;;17.55;58.74
79686;BME280;69153;47.918;11.428;2023-09-18T03:14:34;94646.81;;;17.55;58.40
79686;BME280;69153;47.918;11.428;2023-09-18T03:16:59;94641.47;;;17.55;58.40
79686;BME280;69153;47.918;11.428;2023-09-18T03:19:25;94645.16;;;17.58;58.15
79686;BME280;69153;47.918;11.428;2023-09-18T03:21:52;94642.69;;;17.54;57.95
79686;BME280;69153;47.918;11.428;2023-09-18T03:24:17;94657.06;;;17.57;58.04
79686;BME280;69153;47.918;11.428;2023-09-18T03:26:43;94644.16;;;17.55;58.43
79686;BME280;69153;47.918;11.428;2023-09-18T03:29:08;94649.25;;;17.53;58.22
79686;BME280;69153;47.918;11.428;2023-09-18T03:31:34;94646.25;;;17.45;58.30
79686;BME280;69153;47.918;11.428;2023-09-18T03:33:59;94649.22;;;17.47;58.12
79686;BME280;69153;47.918;11.428;2023-09-18T03:36:24;94633.34;;;17.44;58.08
79686;BME280;69153;47.918;11.428;2023-09-18T03:38:50;94639.22;;;17.48;57.99
79686;BME280;69153;47.918;11.428;2023-09-18T03:41:16;94631.59;;;17.41;57.99
79686;BME280;69153;47.918;11.428;2023-09-18T03:43:41;94627.44;;;17.34;58.39
79686;BME280;69153;47.918;11.428;2023-09-18T03:46:07;94620.06;;;17.29;58.17
79686;BME280;69153;47.918;11.428;2023-09-18T03:48:33;94618.84;;;17.30;58.08
79686;BME280;69153;47.918;11.428;2023-09-18T03:51:06;94613.25;;;17.28;58.03
79686;BME280;69153;47.918;11.428;2023-09-18T03:53:33;94609.63;;;17.31;58.27
79686;BME280;69153;47.918;11.428;2023-09-18T03:55:59;94612.72;;;17.24;58.53
79686;BME280;69153;47.918;11.428;2023-09-18T03:58:24;94607.13;;;17.22;58.74
79686;BME280;69153;47.918;11.428;2023-09-18T04:00:50;94599.38;;;17.30;58.78
79686;BME280;69153;47.918;11.428;2023-09-18T04:03:16;94599.66;;;17.32;58.25
79686;BME280;69153;47.918;11.428;2023-09-18T04:05:42;94598.19;;;17.31;58.33
79686;BME280;69153;47.918;11.428;2023-09-18T04:08:07;94593.09;;;17.33;58.39
79686;BME280;69153;47.918;11.428;2023-09-18T04:10:33;94588.41;;;17.28;58.53
79686;BME280;69153;47.918;11.428;2023-09-18T04:12:58;94593.75;;;17.28;58.37
79686;BME280;69153;47.918;11.428;2023-09-18T04:15:24;94590.63;;;17.29;58.12
79686;BME280;69153;47.918;11.428;2023-09-18T04:17:50;94595.50;;;17.31;58.00
79686;BME280;69153;47.918;11.428;2023-09-18T04:20:16;94586.69;;;17.25;57.84
79686;BME280;69153;47.918;11.428;2023-09-18T04:22:44;94587.84;;;17.18;57.80
79686;BME280;69153;47.918;11.428;2023-09-18T04:25:10;94589.28;;;17.13;57.55
79686;BME280;69153;47.918;11.428;2023-09-18T04:27:36;94585.91;;;16.93;58.36
79686;BME280;69153;47.918;11.428;2023-09-18T04:30:01;94588.75;;;16.84;58.77
79686;BME280;69153;47.918;11.428;2023-09-18T04:32:27;94584.16;;;16.90;58.30
79686;BME280;69153;47.918;11.428;2023-09-18T04:34:53;94585.34;;;16.83;58.68
79686;BME280;69153;47.918;11.428;2023-09-18T04:37:19;94581.50;;;16.90;58.34
79686;BME280;69153;47.918;11.428;2023-09-18T04:39:44;94586.91;;;16.95;58.33
79686;BME280;69153;47.918;11.428;2023-09-18T04:42:10;94593.53;;;17.00;58.19
79686;BME280;69153;47.918;11.428;2023-09-18T04:44:35;94594.28;;;17.00;58.19
79686;BME280;69153;47.918;11.428;2023-09-18T04:47:00;94593.78;;;17.02;58.30
79686;BME280;69153;47.918;11.428;2023-09-18T04:49:26;94588.13;;;16.94;58.34
79686;BME280;69153;47.918;11.428;2023-09-18T04:51:53;94586.91;;;16.95;58.48
79686;BME280;69153;47.918;11.428;2023-09-18T04:54:18;94583.69;;;16.91;58.74
79686;BME280;69153;47.918;11.428;2023-09-18T04:56:44;94583.03;;;16.96;58.51
79686;BME280;69153;47.918;11.428;2023-09-18T04:59:10;94576.47;;;16.97;58.41
79686;BME280;69153;47.918;11.428;2023-09-18T05:01:36;94584.50;;;16.97;58.45
79686;BME280;69153;47.918;11.428;2023-09-18T05:04:01;94579.63;;;16.96;58.27
79686;BME280;69153;47.918;11.428;2023-09-18T05:06:27;94585.50;;;17.00;58.08
79686;BME280;69153;47.918;11.428;2023-09-18T05:08:53;94574.31;;;17.01;57.61
79686;BME280;69153;47.918;11.428;2023-09-18T05:11:19;94578.44;;;17.02;57.81
79686;BME280;69153;47.918;11.428;2023-09-18T05:13:44;94581.81;;;16.97;57.58
79686;BME280;69153;47.918;11.428;2023-09-18T05:16:10;94583.78;;;17.02;57.73
79686;BME280;69153;47.918;11.428;2023-09-18T05:18:35;94583.59;;;17.06;57.61
79686;BME280;69153;47.918;11.428;2023-09-18T05:21:03;94580.44;;;17.07;57.51
79686;BME280;69153;47.918;11.428;2023-09-18T05:23:30;94583.88;;;17.08;57.52
79686;BME280;69153;47.918;11.428;2023-09-18T05:25:56;94587.00;;;17.06;57.58
79686;BME280;69153;47.918;11.428;2023-09-18T05:28:21;94588.00;;;17.09;57.52
79686;BME280;69153;47.918;11.428;2023-09-18T05:30:46;94581.50;;;17.15;57.50
79686;BME280;69153;47.918;11.428;2023-09-18T05:33:12;94584.69;;;17.20;57.38
79686;BME280;69153;47.918;11.428;2023-09-18T05:35:44;94590.84;;;17.26;57.52
79686;BME280;69153;47.918;11.428;2023-09-18T05:38:11;94595.22;;;17.29;57.89
79686;BME280;69153;47.918;11.428;2023-09-18T05:40:39;94590.88;;;17.31;58.17
79686;BME280;69153;47.918;11.428;2023-09-18T05:43:04;94595.84;;;17.44;58.04
79686;BME280;69153;47.918;11.428;2023-09-18T05:45:30;94596.66;;;17.56;58.01
79686;BME280;69153;47.918;11.428;2023-09-18T05:47:58;94586.06;;;17.67;58.13
79686;BME280;69153;47.918;11.428;2023-09-18T05:50:30;94580.75;;;17.72;58.02
79686;BME280;69153;47.918;11.428;2023-09-18T05:52:57;94588.13;;;17.83;57.70
79686;BME280;69153;47.918;11.428;2023-09-18T05:55:31;94590.88;;;17.94;57.43
79686;BME280;69153;47.918;11.428;2023-09-18T05:57:57;94589.97;;;18.08;57.38
79686;BME280;69153;47.918;11.428;2023-09-18T06:00:23;94590.06;;;18.25;57.33
79686;BME280;69153;47.918;11.428;2023-09-18T06:02:49;94582.84;;;18.42;57.00
79686;BME280;69153;47.918;11.428;2023-09-18T06:05:16;94579.94;;;18.57;57.12
79686;BME280;69153;47.918;11.428;2023-09-18T06:07:42;94581.97;;;18.73;57.32
79686;BME280;69153;47.918;11.428;2023-09-18T06:10:08;94578.63;;;18.95;57.03
79686;BME280;69153;47.918;11.428;2023-09-18T06:12:34;94581.56;;;19.08;56.88
79686;BME280;69153;47.918;11.428;2023-09-18T06:14:59;94582.56;;;19.27;56.44
79686;BME280;69153;47.918;11.428;2023-09-18T06:17:25;94582.56;;;19.44;56.26
79686;BME280;69153;47.918;11.428;2023-09-18T06:19:50;94578.69;;;19.56;56.21
79686;BME280;69153;47.918;11.428;2023-09-18T06:22:17;94585.25;;;19.78;56.51
79686;BME280;69153;47.918;11.428;2023-09-18T06:24:43;94572.03;;;19.91;55.82
79686;BME280;69153;47.918;11.428;2023-09-18T06:27:08;94570.53;;;20.01;55.71
79686;BME280;69153;47.918;11.428;2023-09-18T06:29:34;94579.34;;;20.07;56.19
79686;BME280;69153;47.918;11.428;2023-09-18T06:32:00;94580.56;;;20.12;55.70
79686;BME280;69153;47.918;11.428;2023-09-18T06:34:26;94579.53;;;20.20;55.40
79686;BME280;69153;47.918;11.428;2023-09-18T06:36:53;94582.44;;;20.28;55.47
79686;BME280;69153;47.918;11.428;2023-09-18T06:39:18;94584.41;;;20.33;55.56
79686;BME280;69153;47.918;11.428;2023-09-18T06:41:45;94592.47;;;20.39;55.51
79686;BME280;69153;47.918;11.428;2023-09-18T06:44:11;94592.66;;;20.52;55.96
79686;BME280;69153;47.918;11.428;2023-09-18T06:46:36;94606.31;;;20.71;55.99
79686;BME280;69153;47.918;11.428;2023-09-18T06:49:02;94606.19;;;20.93;55.91
79686;BME280;69153;47.918;11.428;2023-09-18T06:51:28;94622.72;;;21.19;54.61
79686;BME280;69153;47.918;11.428;2023-09-18T06:53:54;94615.94;;;21.43;53.79
79686;BME280;69153;47.918;11.428;2023-09-18T06:56:20;94627.00;;;21.69;53.18
79686;BME280;69153;47.918;11.428;2023-09-18T06:58:45;94638.59;;;21.94;52.32
79686;BME280;69153;47.918;11.428;2023-09-18T07:01:13;94643.00;;;22.21;52.48
79686;BME280;69153;47.918;11.428;2023-09-18T07:03:40;94649.94;;;22.41;52.11
79686;BME280;69153;47.918;11.428;2023-09-18T07:06:06;94662.91;;;22.67;50.49
79686;BME280;69153;47.918;11.428;2023-09-18T07:08:31;94662.19;;;22.66;50.57
79686;BME280;69153;47.918;11.428;2023-09-18T07:10:58;94653.31;;;22.23;53.81
79686;BME280;69153;47.918;11.428;2023-09-18T07:13:23;94671.28;;;22.63;52.06
79686;BME280;69153;47.918;11.428;2023-09-18T07:15:49;94654.97;;;22.74;51.39
79686;BME280;69153;47.918;11.428;2023-09-18T07:18:14;94658.81;;;22.85;51.88
79686;BME280;69153;47.918;11.428;2023-09-18T07:20:40;94658.66;;;23.14;51.62
79686;BME280;69153;47.918;11.428;2023-09-18T07:23:06;94665.75;;;23.36;50.57
79686;BME280;69153;47.918;11.428;2023-09-18T07:25:32;94655.78;;;23.63;49.51
79686;BME280;69153;47.918;11.428;2023-09-18T07:27:57;94664.56;;;23.69;49.75
79686;BME280;69153;47.918;11.428;2023-09-18T07:30:23;94647.13;;;23.83;49.01
79686;BME280;69153;47.918;11.428;2023-09-18T07:32:54;94648.50;;;23.58;50.61
79686;BME280;69153;47.918;11.428;2023-09-18T07:35:23;94657.78;;;23.44;51.29
79686;BME280;69153;47.918;11.428;2023-09-18T07:37:49;94656.31;;;23.43;51.26
79686;BME280;69153;47.918;11.428;2023-09-18T07:42:42;94649.47;;;24.06;49.59
79686;BME280;69153;47.918;11.428;2023-09-18T07:45:11;94651.22;;;24.48;48.82
79686;BME280;69153;47.918;11.428;2023-09-18T07:47:37;94657.66;;;24.72;45.45
79686;BME280;69153;47.918;11.428;2023-09-18T07:50:03;94660.06;;;25.02;44.19
79686;BME280;69153;47.918;11.428;2023-09-18T07:52:29;94657.94;;;25.08;43.19
79686;BME280;69153;47.918;11.428;2023-09-18T07:54:55;94668.47;;;25.11;43.47
79686;BME280;69153;47.918;11.428;2023-09-18T07:57:21;94677.09;;;25.23;43.85
79686;BME280;69153;47.918;11.428;2023-09-18T07:59:48;94686.50;;;25.09;43.34
79686;BME280;69153;47.918;11.428;2023-09-18T08:02:14;94683.41;;;24.91;41.80
79686;BME280;69153;47.918;11.428;2023-09-18T08:04:39;94689.00;;;24.80;42.24
79686;BME280;69153;47.918;11.428;2023-09-18T08:07:05;94689.53;;;24.39;42.95
79686;BME280;69153;47.918;11.428;2023-09-18T08:09:33;94706.31;;;24.38;43.54
79686;BME280;69153;47.918;11.428;2023-09-18T08:12:02;94705.25;;;24.28;44.34
79686;BME280;69153;47.918;11.428;2023-09-18T08:14:28;94712.69;;;24.21;44.30
79686;BME280;69153;47.918;11.428;2023-09-18T08:16:58;94719.88;;;24.19;44.97
79686;BME280;69153;47.918;11.428;2023-09-18T08:19:25;94724.22;;;24.09;45.16
79686;BME280;69153;47.918;11.428;2023-09-18T08:21:54;94718.88;;;24.03;44.54
79686;BME280;69153;47.918;11.428;2023-09-18T08:24:21;94731.69;;;24.03;44.83
79686;BME280;69153;47.918;11.428;2023-09-18T08:26:47;94739.41;;;23.99;45.61
79686;BME280;69153;47.918;11.428;2023-09-18T08:29:12;94749.09;;;24.07;45.02
79686;BME280;69153;47.918;11.428;2023-09-18T08:31:38;94752.41;;;24.00;45.69
79686;BME280;69153;47.918;11.428;2023-09-18T08:34:03;94762.72;;;24.02;45.32
79686;BME280;69153;47.918;11.428;2023-09-18T08:36:29;94771.44;;;23.95;46.26
79686;BME280;69153;47.918;11.428;2023-09-18T08:38:56;94770.56;;;23.86;45.87
79686;BME280;69153;47.918;11.428;2023-09-18T08:41:23;94772.84;;;23.82;45.73
79686;BME280;69153;47.918;11.428;2023-09-18T08:43:57;94760.16;;;23.91;45.33
79686;BME280;69153;47.918;11.428;2023-09-18T08:46:25;94757.56;;;23.85;46.15
79686;BME280;69153;47.918;11.428;2023-09-18T08:48:51;94770.06;;;23.50;46.42
79686;BME280;69153;47.918;11.428;2023-09-18T08:51:18;94779.03;;;23.77;46.22
79686;BME280;69153;47.918;11.428;2023-09-18T08:53:45;94794.72;;;23.84;45.41
79686;BME280;69153;47.918;11.428;2023-09-18T08:56:12;94796.09;;;23.91;46.04
79686;BME280;69153;47.918;11.428;2023-09-18T08:58:39;94800.78;;;23.72;46.29
79686;BME280;69153;47.918;11.428;2023-09-18T09:01:08;94804.38;;;23.61;46.05
79686;BME280;69153;47.918;11.428;2023-09-18T09:03:44;94795.59;;;23.55;46.75
79686;BME280;69153;47.918;11.428;2023-09-18T09:06:13;94805.97;;;23.89;45.89
79686;BME280;69153;47.918;11.428;2023-09-18T09:08:38;94807.50;;;23.84;46.15
79686;BME280;69153;47.918;11.428;2023-09-18T09:11:04;94795.13;;;24.26;45.47
79686;BME280;69153;47.918;11.428;2023-09-18T09:13:30;94804.78;;;24.53;44.98
79686;BME280;69153;47.918;11.428;2023-09-18T09:15:58;94800.75;;;24.86;43.83
79686;BME280;69153;47.918;11.428;2023-09-18T09:18:26;94794.22;;;25.08;44.48
79686;BME280;69153;47.918;11.428;2023-09-18T09:23:29;94786.28;;;25.50;43.03
79686;BME280;69153;47.918;11.428;2023-09-18T09:26:15;94791.72;;;25.63;43.04
79686;BME280;69153;47.918;11.428;2023-09-18T09:28:42;94791.25;;;25.72;43.26
79686;BME280;69153;47.918;11.428;2023-09-18T09:31:09;94794.28;;;25.82;43.25
79686;BME280;69153;47.918;11.428;2023-09-18T09:33:36;94806.00;;;25.63;43.01
79686;BME280;69153;47.918;11.428;2023-09-18T09:36:05;94805.41;;;25.44;44.14
79686;BME280;69153;47.918;11.428;2023-09-18T09:38:33;94808.19;;;25.65;43.77
79686;BME280;69153;47.918;11.428;2023-09-18T09:41:00;94810.06;;;25.70;43.40
79686;BME280;69153;47.918;11.428;2023-09-18T09:43:27;94807.69;;;25.40;43.90
79686;BME280;69153;47.918;11.428;2023-09-18T09:46:00;94806.75;;;25.24;44.66
79686;BME280;69153;47.918;11.428;2023-09-18T09:48:26;94814.97;;;25.06;45.09
79686;BME280;69153;47.918;11.428;2023-09-18T09:50:52;94813.81;;;24.88;45.43
79686;BME280;69153;47.918;11.428;2023-09-18T09:53:46;94808.94;;;24.54;45.88
79686;BME280;69153;47.918;11.428;2023-09-18T09:56:14;94805.19;;;24.57;46.64
79686;BME280;69153;47.918;11.428;2023-09-18T09:58:41;94809.88;;;24.57;46.34
79686;BME280;69153;47.918;11.428;2023-09-18T10:01:12;94798.69;;;24.79;46.46
79686;BME280;69153;47.918;11.428;2023-09-18T10:03:44;94803.19;;;24.45;46.67
79686;BME280;69153;47.918;11.428;2023-09-18T10:06:11;94803.97;;;24.72;46.49
79686;BME280;69153;47.918;11.428;2023-09-18T10:08:40;94801.09;;;25.36;45.34
79686;BME280;69153;47.918;11.428;2023-09-18T10:11:07;94799.06;;;25.89;44.16
79686;BME280;69153;47.918;11.428;2023-09-18T10:13:42;94807.88;;;25.69;44.79
79686;BME280;69153;47.918;11.428;2023-09-18T10:16:13;94807.78;;;25.48;44.97
79686;BME280;69153;47.918;11.428;2023-09-18T10:21:49;94805.50;;;24.99;45.86
79686;BME280;69153;47.918;11.428;2023-09-18T10:24:24;94817.06;;;25.13;46.07
79686;BME280;69153;47.918;11.428;2023-09-18T10:26:58;94830.22;;;24.64;46.51
79686;BME280;69153;47.918;11.428;2023-09-18T10:29:29;94820.16;;;24.45;47.02
79686;BME280;69153;47.918;11.428;2023-09-18T10:31:55;94818.75;;;24.26;47.78
79686;BME280;69153;47.918;11.428;2023-09-18T10:34:24;94825.03;;;24.34;46.99
79686;BME280;69153;47.918;11.428;2023-09-18T10:36:52;94826.19;;;24.38;47.52
79686;BME280;69153;47.918;11.428;2023-09-18T10:39:18;94834.84;;;24.37;47.62
79686;BME280;69153;47.918;11.428;2023-09-18T10:41:53;94825.13;;;24.09;48.68
79686;BME280;69153;47.918;11.428;2023-09-18T10:44:20;94825.94;;;23.85;48.45
79686;BME280;69153;47.918;11.428;2023-09-18T10:46:47;94827.19;;;23.84;48.60
79686;BME280;69153;47.918;11.428;2023-09-18T10:49:14;94818.69;;;23.94;48.05
79686;BME280;69153;47.918;11.428;2023-09-18T10:51:40;94831.78;;;23.90;47.24
79686;BME280;69153;47.918;11.428;2023-09-18T10:54:09;94833.31;;;23.66;47.62
79686;BME280;69153;47.918;11.428;2023-09-18T10:56:34;94847.34;;;23.40;48.35
79686;BME280;69153;47.918;11.428;2023-09-18T10:59:02;94832.09;;;23.43;48.60
79686;BME280;69153;47.918;11.428;2023-09-18T11:01:31;94840.97;;;23.38;48.83
79686;BME280;69153;47.918;11.428;2023-09-18T11:04:03;94842.53;;;23.58;48.11
79686;BME280;69153;47.918;11.428;2023-09-18T11:06:29;94854.72;;;23.40;48.18
79686;BME280;69153;47.918;11.428;2023-09-18T11:09:07;94855.41;;;23.46;48.30
79686;BME280;69153;47.918;11.428;2023-09-18T11:11:34;94856.53;;;23.56;48.33
79686;BME280;69153;47.918;11.428;2023-09-18T11:14:00;94875.13;;;23.41;48.56
79686;BME280;69153;47.918;11.428;2023-09-18T11:26:37;94912.31;;;22.39;51.62
79686;BME280;69153;47.918;11.428;2023-09-18T11:29:06;94906.06;;;22.15;52.03
79686;BME280;69153;47.918;11.428;2023-09-18T11:31:49;94928.16;;;22.19;51.91
79686;BME280;69153;47.918;11.428;2023-09-18T11:34:26;94914.25;;;21.92;52.25
79686;BME280;69153;47.918;11.428;2023-09-18T11:36:54;94931.44;;;21.84;52.82
79686;BME280;69153;47.918;11.428;2023-09-18T11:39:33;94956.50;;;21.73;53.58
79686;BME280;69153;47.918;11.428;2023-09-18T11:42:18;94936.44;;;21.57;53.41
79686;BME280;69153;47.918;11.428;2023-09-18T11:44:44;94927.63;;;21.51;53.05
79686;BME280;69153;47.918;11.428;2023-09-18T11:47:15;94931.78;;;21.52;53.49
79686;BME280;69153;47.918;11.428;2023-09-18T11:49:54;94945.22;;;21.74;52.83
79686;BME280;69153;47.918;11.428;2023-09-18T11:52:22;94940.00;;;21.88;52.65
79686;BME280;69153;47.918;11.428;2023-09-18T11:54:48;94947.94;;;21.63;54.39
79686;BME280;69153;47.918;11.428;2023-09-18T11:57:14;94947.66;;;21.72;54.68
79686;BME280;69153;47.918;11.428;2023-09-18T11:59:41;94951.34;;;21.75;54.51
79686;BME280;69153;47.918;11.428;2023-09-18T12:02:25;94962.66;;;21.62;55.27
79686;BME280;69153;47.918;11.428;2023-09-18T12:04:53;94981.75;;;21.75;55.53
79686;BME280;69153;47.918;11.428;2023-09-18T12:07:19;94970.22;;;21.69;54.32
79686;BME280;69153;47.918;11.428;2023-09-18T12:09:45;94980.06;;;21.61;54.64
79686;BME280;69153;47.918;11.428;2023-09-18T12:12:11;94976.41;;;21.53;55.67
79686;BME280;69153;47.918;11.428;2023-09-18T12:14:40;94991.09;;;21.63;55.54
79686;BME280;69153;47.918;11.428;2023-09-18T12:17:07;94997.47;;;21.60;55.76
79686;BME280;69153;47.918;11.428;2023-09-18T12:19:34;95010.22;;;21.15;57.75
79686;BME280;69153;47.918;11.428;2023-09-18T12:22:01;95025.53;;;20.53;59.49
79686;BME280;69153;47.918;11.428;2023-09-18T12:24:27;95016.47;;;20.45;60.35
79686;BME280;69153;47.918;11.428;2023-09-18T12:26:54;95028.22;;;20.53;60.20
79686;BME280;69153;47.918;11.428;2023-09-18T12:29:20;95032.03;;;20.30;60.65
79686;BME280;69153;47.918;11.428;2023-09-18T12:31:46;95014.66;;;20.31;61.15
79686;BME280;69153;47.918;11.428;2023-09-18T12:34:16;95029.09;;;20.28;60.49
79686;BME280;69153;47.918;11.428;2023-09-18T12:36:43;95023.44;;;20.20;59.87
79686;BME280;69153;47.918;11.428;2023-09-18T12:39:08;95030.38;;;19.90;60.79
79686;BME280;69153;47.918;11.428;2023-09-18T12:41:36;95021.34;;;19.93;62.25
79686;BME280;69153;47.918;11.428;2023-09-18T12:44:05;95023.13;;;19.59;62.71
79686;BME280;69153;47.918;11.428;2023-09-18T12:46:32;95033.28;;;19.86;62.24
79686;BME280;69153;47.918;11.428;2023-09-18T12:48:58;95028.75;;;20.04;62.12
79686;BME280;69153;47.918;11.428;2023-09-18T12:51:31;95036.00;;;19.92;62.91
79686;BME280;69153;47.918;11.428;2023-09-18T12:54:02;95025.59;;;20.11;62.65
79686;BME280;69153;47.918;11.428;2023-09-18T12:56:32;95033.31;;;19.92;63.55
79686;BME280;69153;47.918;11.428;2023-09-18T12:58:58;95035.34;;;20.03;63.70
79686;BME280;69153;47.918;11.428;2023-09-18T13:01:29;95035.50;;;19.88;64.19
79686;BME280;69153;47.918;11.428;2023-09-18T13:03:54;95031.47;;;19.67;64.86
79686;BME280;69153;47.918;11.428;2023-09-18T13:06:30;95028.66;;;19.87;64.55
79686;BME280;69153;47.918;11.428;2023-09-18T13:09:15;95028.72;;;19.98;64.32
79686;BME280;69153;47.918;11.428;2023-09-18T13:11:55;95028.88;;;20.31;63.43
79686;BME280;69153;47.918;11.428;2023-09-18T13:14:21;95026.47;;;20.39;62.77